AZU2446 SBSV-SBCF
Flight info
| Callsign | AZU2446 |
|---|---|
| Flight time | 1h 22m |
| Altitude | 38000 |
| Route | GILDO UZ21 OPTEB |
| Aircraft | A20N/M-SDE2E3FGHIRWXY/LB1 |
Departure
| Time | 2026-04-27 14:37 |
|---|---|
| Airport | Deputado Luiz Eduardo Magalhães International Airport (SBSV) |
Arrival
| Time | 2026-04-27 15:59 |
|---|---|
| Airport | Tancredo Neves International Airport (SBCF) |
| Time | Latitude | Longitude | Altitude | Speed | Heading |
|---|---|---|---|---|---|
| 2026-04-27 14:24 | -12.91542 | -38.33294 | 43 ft | 1 kts | 74° |
| 2026-04-27 14:24 | -12.91543 | -38.33300 | 43 ft | 1 kts | 85° |
| 2026-04-27 14:24 | -12.91544 | -38.33304 | 43 ft | 0 kts | 82° |
| 2026-04-27 14:30 | -12.91544 | -38.33302 | 43 ft | 1 kts | 82° |
| 2026-04-27 14:30 | -12.91541 | -38.33288 | 43 ft | 3 kts | 81° |
| 2026-04-27 14:30 | -12.91534 | -38.33247 | 41 ft | 8 kts | 79° |
| 2026-04-27 14:31 | -12.91517 | -38.33175 | 38 ft | 11 kts | 61° |
| 2026-04-27 14:31 | -12.91450 | -38.33139 | 39 ft | 10 kts | 5° |
| 2026-04-27 14:31 | -12.91390 | -38.33147 | 41 ft | 7 kts | 349° |
| 2026-04-27 14:31 | -12.91347 | -38.33155 | 42 ft | 5 kts | 349° |
| 2026-04-27 14:32 | -12.91315 | -38.33161 | 43 ft | 3 kts | 348° |
| 2026-04-27 14:32 | -12.91290 | -38.33167 | 43 ft | 3 kts | 348° |
| 2026-04-27 14:32 | -12.91263 | -38.33172 | 43 ft | 4 kts | 348° |
| 2026-04-27 14:32 | -12.91230 | -38.33182 | 43 ft | 5 kts | 331° |
| 2026-04-27 14:33 | -12.91214 | -38.33217 | 43 ft | 5 kts | 269° |
| 2026-04-27 14:33 | -12.91218 | -38.33256 | 44 ft | 5 kts | 260° |
| 2026-04-27 14:33 | -12.91224 | -38.33292 | 44 ft | 5 kts | 266° |
| 2026-04-27 14:33 | -12.91219 | -38.33329 | 44 ft | 5 kts | 287° |
| 2026-04-27 14:34 | -12.91205 | -38.33361 | 43 ft | 0 kts | 296° |
| 2026-04-27 14:35 | -12.91198 | -38.33376 | 43 ft | 5 kts | 297° |
| 2026-04-27 14:35 | -12.91161 | -38.33431 | 42 ft | 12 kts | 327° |
| 2026-04-27 14:35 | -12.91090 | -38.33395 | 41 ft | 14 kts | 72° |
| 2026-04-27 14:36 | -12.91080 | -38.33349 | 40 ft | 0 kts | 79° |
| 2026-04-27 14:36 | -12.91075 | -38.33323 | 40 ft | 23 kts | 78° |
| 2026-04-27 14:36 | -12.90990 | -38.32902 | 36 ft | 93 kts | 78° |
| 2026-04-27 14:37 | -12.90819 | -38.32052 | 46 ft | 148 kts | 78° |
| 2026-04-27 14:37 | -12.90578 | -38.30894 | 171 ft | 180 kts | 80° |
| 2026-04-27 14:37 | -12.90334 | -38.29639 | 787 ft | 177 kts | 80° |
| 2026-04-27 14:37 | -12.90110 | -38.28458 | 1539 ft | 170 kts | 81° |
| 2026-04-27 14:38 | -12.89912 | -38.27255 | 2049 ft | 176 kts | 90° |
| 2026-04-27 14:38 | -12.90304 | -38.26041 | 2338 ft | 191 kts | 128° |
| 2026-04-27 14:38 | -12.91443 | -38.25218 | 2637 ft | 211 kts | 161° |
| 2026-04-27 14:38 | -12.92988 | -38.25208 | 2863 ft | 238 kts | 199° |
| 2026-04-27 14:39 | -12.94339 | -38.26261 | 3235 ft | 259 kts | 232° |
| 2026-04-27 14:39 | -12.95348 | -38.27851 | 3746 ft | 273 kts | 238° |
| 2026-04-27 14:39 | -12.96318 | -38.29530 | 4454 ft | 278 kts | 238° |
| 2026-04-27 14:39 | -12.97317 | -38.31232 | 5229 ft | 281 kts | 237° |
| 2026-04-27 14:40 | -12.98347 | -38.32938 | 6007 ft | 284 kts | 237° |
| 2026-04-27 14:40 | -12.99400 | -38.34652 | 6775 ft | 288 kts | 237° |
| 2026-04-27 14:40 | -13.00480 | -38.36395 | 7561 ft | 292 kts | 237° |
| 2026-04-27 14:40 | -13.01579 | -38.38164 | 8357 ft | 296 kts | 237° |
| 2026-04-27 14:41 | -13.02523 | -38.40019 | 9144 ft | 300 kts | 248° |
| 2026-04-27 14:41 | -13.03122 | -38.42068 | 9915 ft | 303 kts | 258° |
| 2026-04-27 14:41 | -13.03531 | -38.44193 | 10584 ft | 309 kts | 260° |
| 2026-04-27 14:41 | -13.03920 | -38.46407 | 10980 ft | 326 kts | 261° |
| 2026-04-27 14:42 | -13.04333 | -38.48750 | 11486 ft | 337 kts | 261° |
| 2026-04-27 14:42 | -13.04757 | -38.51108 | 12164 ft | 340 kts | 260° |
| 2026-04-27 14:42 | -13.05187 | -38.53464 | 12851 ft | 342 kts | 261° |
| 2026-04-27 14:42 | -13.05631 | -38.55880 | 13512 ft | 344 kts | 261° |
| 2026-04-27 14:43 | -13.06067 | -38.58263 | 14101 ft | 348 kts | 260° |
| 2026-04-27 14:43 | -13.06517 | -38.60706 | 14669 ft | 352 kts | 260° |
| 2026-04-27 14:43 | -13.06974 | -38.63191 | 15225 ft | 356 kts | 260° |
| 2026-04-27 14:43 | -13.07437 | -38.65708 | 15779 ft | 360 kts | 260° |
| 2026-04-27 14:44 | -13.07903 | -38.68231 | 16336 ft | 363 kts | 260° |
| 2026-04-27 14:44 | -13.08375 | -38.70757 | 16849 ft | 367 kts | 258° |
| 2026-04-27 14:44 | -13.09105 | -38.73281 | 17354 ft | 371 kts | 249° |
| 2026-04-27 14:44 | -13.10205 | -38.75672 | 17856 ft | 375 kts | 240° |
| 2026-04-27 14:45 | -13.11561 | -38.77949 | 18351 ft | 378 kts | 238° |
| 2026-04-27 14:45 | -13.12987 | -38.80237 | 18833 ft | 382 kts | 237° |
| 2026-04-27 14:45 | -13.14438 | -38.82555 | 19299 ft | 386 kts | 237° |
| 2026-04-27 14:45 | -13.15886 | -38.84879 | 19768 ft | 390 kts | 238° |
| 2026-04-27 14:46 | -13.17345 | -38.87233 | 20237 ft | 394 kts | 238° |
| 2026-04-27 14:46 | -13.18813 | -38.89610 | 20706 ft | 397 kts | 238° |
| 2026-04-27 14:46 | -13.20300 | -38.92022 | 21159 ft | 401 kts | 238° |
| 2026-04-27 14:46 | -13.21800 | -38.94459 | 21606 ft | 405 kts | 238° |
| 2026-04-27 14:47 | -13.23290 | -38.96882 | 22053 ft | 408 kts | 238° |
| 2026-04-27 14:47 | -13.24829 | -38.99387 | 22515 ft | 412 kts | 238° |
| 2026-04-27 14:47 | -13.26363 | -39.01884 | 22973 ft | 415 kts | 238° |
| 2026-04-27 14:47 | -13.27887 | -39.04367 | 23451 ft | 417 kts | 238° |
| 2026-04-27 14:48 | -13.29436 | -39.06891 | 23948 ft | 418 kts | 238° |
| 2026-04-27 14:48 | -13.32558 | -39.11975 | 24899 ft | 422 kts | 238° |
| 2026-04-27 14:48 | -13.34109 | -39.14504 | 25357 ft | 424 kts | 238° |
| 2026-04-27 14:49 | -13.35697 | -39.17092 | 25798 ft | 426 kts | 238° |
| 2026-04-27 14:49 | -13.37276 | -39.19670 | 26229 ft | 428 kts | 238° |
| 2026-04-27 14:49 | -13.38854 | -39.22246 | 26659 ft | 430 kts | 238° |
| 2026-04-27 14:49 | -13.40433 | -39.24824 | 27077 ft | 432 kts | 237° |
| 2026-04-27 14:50 | -13.42043 | -39.27454 | 27489 ft | 434 kts | 237° |
| 2026-04-27 14:50 | -13.43698 | -39.30022 | 27871 ft | 436 kts | 232° |
| 2026-04-27 14:50 | -13.45676 | -39.32426 | 28265 ft | 437 kts | 225° |
| 2026-04-27 14:50 | -13.47916 | -39.34526 | 28656 ft | 438 kts | 217° |
| 2026-04-27 14:51 | -13.50324 | -39.36389 | 29077 ft | 438 kts | 215° |
| 2026-04-27 14:51 | -13.52821 | -39.38244 | 29467 ft | 440 kts | 215° |
| 2026-04-27 14:51 | -13.55319 | -39.40091 | 29813 ft | 443 kts | 215° |
| 2026-04-27 14:51 | -13.56986 | -39.41326 | 30044 ft | 445 kts | 215° |
| 2026-04-27 14:52 | -13.60342 | -39.43823 | 30503 ft | 449 kts | 216° |
| 2026-04-27 14:52 | -13.62870 | -39.45710 | 30844 ft | 451 kts | 216° |
| 2026-04-27 14:52 | -13.65395 | -39.47600 | 31200 ft | 453 kts | 216° |
| 2026-04-27 14:52 | -13.67938 | -39.49505 | 31659 ft | 452 kts | 216° |
| 2026-04-27 14:53 | -13.70484 | -39.51414 | 32131 ft | 450 kts | 216° |
| 2026-04-27 14:53 | -13.72993 | -39.53296 | 32563 ft | 449 kts | 216° |
| 2026-04-27 14:53 | -13.75514 | -39.55188 | 32972 ft | 448 kts | 216° |
| 2026-04-27 14:53 | -13.78059 | -39.57099 | 33420 ft | 447 kts | 216° |
| 2026-04-27 14:54 | -13.80549 | -39.58970 | 33886 ft | 445 kts | 216° |
| 2026-04-27 14:54 | -13.83058 | -39.60856 | 34350 ft | 443 kts | 216° |
| 2026-04-27 14:54 | -13.85513 | -39.62701 | 34777 ft | 441 kts | 216° |
| 2026-04-27 14:54 | -13.87979 | -39.64555 | 35169 ft | 439 kts | 216° |
| 2026-04-27 14:55 | -13.90472 | -39.66430 | 35544 ft | 438 kts | 217° |
| 2026-04-27 14:55 | -13.92915 | -39.68268 | 35877 ft | 437 kts | 217° |
| 2026-04-27 14:55 | -13.95392 | -39.70132 | 36196 ft | 436 kts | 216° |
| 2026-04-27 14:55 | -13.97828 | -39.71965 | 36472 ft | 436 kts | 217° |
| 2026-04-27 14:56 | -14.00294 | -39.73821 | 36728 ft | 436 kts | 216° |
| 2026-04-27 14:56 | -14.02724 | -39.75651 | 36943 ft | 437 kts | 216° |
| 2026-04-27 14:56 | -14.05196 | -39.77512 | 37148 ft | 438 kts | 217° |
| 2026-04-27 14:56 | -14.07672 | -39.79377 | 37366 ft | 438 kts | 217° |
| 2026-04-27 14:57 | -14.10119 | -39.81221 | 37566 ft | 438 kts | 217° |
| 2026-04-27 14:57 | -14.12573 | -39.83071 | 37775 ft | 438 kts | 217° |
| 2026-04-27 14:57 | -14.15036 | -39.84928 | 37960 ft | 439 kts | 217° |
| 2026-04-27 14:57 | -14.17500 | -39.86786 | 38050 ft | 441 kts | 217° |
| 2026-04-27 14:58 | -14.22481 | -39.90546 | 38063 ft | 442 kts | 217° |
| 2026-04-27 14:58 | -14.27425 | -39.94276 | 38073 ft | 442 kts | 217° |
| 2026-04-27 14:59 | -14.32381 | -39.98021 | 38077 ft | 442 kts | 217° |
| 2026-04-27 14:59 | -14.37367 | -40.01789 | 38082 ft | 443 kts | 217° |
| 2026-04-27 15:00 | -14.42326 | -40.05541 | 38081 ft | 443 kts | 217° |
| 2026-04-27 15:00 | -14.47319 | -40.09320 | 38083 ft | 443 kts | 217° |
| 2026-04-27 15:01 | -14.52290 | -40.13086 | 38086 ft | 443 kts | 217° |
| 2026-04-27 15:01 | -14.57237 | -40.16835 | 38092 ft | 443 kts | 217° |
| 2026-04-27 15:02 | -14.62230 | -40.20615 | 38095 ft | 443 kts | 217° |
| 2026-04-27 15:02 | -14.67184 | -40.24366 | 38102 ft | 442 kts | 217° |
| 2026-04-27 15:03 | -14.72146 | -40.28128 | 38110 ft | 441 kts | 218° |
| 2026-04-27 15:03 | -14.77060 | -40.31859 | 38119 ft | 441 kts | 218° |
| 2026-04-27 15:04 | -14.82020 | -40.35628 | 38130 ft | 441 kts | 218° |
| 2026-04-27 15:04 | -14.86951 | -40.39376 | 38130 ft | 440 kts | 218° |
| 2026-04-27 15:05 | -14.91885 | -40.43131 | 38125 ft | 441 kts | 218° |
| 2026-04-27 15:05 | -14.96809 | -40.46877 | 38118 ft | 440 kts | 218° |
| 2026-04-27 15:06 | -15.01760 | -40.50648 | 38109 ft | 440 kts | 218° |
| 2026-04-27 15:06 | -15.06703 | -40.54416 | 38107 ft | 440 kts | 218° |
| 2026-04-27 15:07 | -15.11623 | -40.58167 | 38106 ft | 441 kts | 218° |
| 2026-04-27 15:07 | -15.16549 | -40.61926 | 38101 ft | 441 kts | 218° |
| 2026-04-27 15:08 | -15.21512 | -40.65715 | 38088 ft | 441 kts | 218° |
| 2026-04-27 15:08 | -15.26429 | -40.69470 | 38082 ft | 441 kts | 218° |
| 2026-04-27 15:09 | -15.31378 | -40.73251 | 38090 ft | 440 kts | 218° |
| 2026-04-27 15:09 | -15.36294 | -40.77011 | 38100 ft | 440 kts | 218° |
| 2026-04-27 15:10 | -15.41232 | -40.80789 | 38111 ft | 441 kts | 218° |
| 2026-04-27 15:10 | -15.46168 | -40.84569 | 38122 ft | 441 kts | 218° |
| 2026-04-27 15:11 | -15.51084 | -40.88337 | 38125 ft | 440 kts | 218° |
| 2026-04-27 15:11 | -15.56028 | -40.92128 | 38120 ft | 440 kts | 218° |
| 2026-04-27 15:12 | -15.60938 | -40.95893 | 38121 ft | 439 kts | 218° |
| 2026-04-27 15:12 | -15.65848 | -40.99660 | 38121 ft | 439 kts | 218° |
| 2026-04-27 15:13 | -15.70746 | -41.03422 | 38124 ft | 439 kts | 218° |
| 2026-04-27 15:13 | -15.75669 | -41.07206 | 38129 ft | 439 kts | 218° |
| 2026-04-27 15:14 | -15.80569 | -41.10976 | 38135 ft | 438 kts | 219° |
| 2026-04-27 15:14 | -15.85468 | -41.14747 | 38136 ft | 437 kts | 218° |
| 2026-04-27 15:15 | -15.90343 | -41.18504 | 38136 ft | 437 kts | 218° |
| 2026-04-27 15:15 | -15.95243 | -41.22281 | 38137 ft | 437 kts | 218° |
| 2026-04-27 15:16 | -16.00135 | -41.26049 | 38135 ft | 437 kts | 218° |
| 2026-04-27 15:16 | -16.05014 | -41.29803 | 38127 ft | 437 kts | 218° |
| 2026-04-27 15:17 | -16.09891 | -41.33562 | 38128 ft | 437 kts | 219° |
| 2026-04-27 15:17 | -16.14749 | -41.37313 | 38127 ft | 436 kts | 219° |
| 2026-04-27 15:18 | -16.19647 | -41.41098 | 38126 ft | 436 kts | 219° |
| 2026-04-27 15:18 | -16.24523 | -41.44866 | 38121 ft | 437 kts | 219° |
| 2026-04-27 15:19 | -16.29385 | -41.48627 | 38117 ft | 437 kts | 219° |
| 2026-04-27 15:19 | -16.34261 | -41.52403 | 38107 ft | 437 kts | 219° |
| 2026-04-27 15:20 | -16.39131 | -41.56174 | 38099 ft | 438 kts | 219° |
| 2026-04-27 15:20 | -16.44046 | -41.59983 | 38089 ft | 438 kts | 219° |
| 2026-04-27 15:21 | -16.48912 | -41.63757 | 38077 ft | 438 kts | 219° |
| 2026-04-27 15:21 | -16.53815 | -41.67562 | 38079 ft | 438 kts | 219° |
| 2026-04-27 15:22 | -16.58707 | -41.71361 | 38077 ft | 438 kts | 219° |
| 2026-04-27 15:22 | -16.63590 | -41.75155 | 38087 ft | 438 kts | 219° |
| 2026-04-27 15:23 | -16.68484 | -41.78961 | 38090 ft | 439 kts | 219° |
| 2026-04-27 15:23 | -16.73365 | -41.82761 | 38095 ft | 439 kts | 219° |
| 2026-04-27 15:24 | -16.78261 | -41.86575 | 38090 ft | 438 kts | 219° |
| 2026-04-27 15:24 | -16.83147 | -41.90383 | 38096 ft | 438 kts | 219° |
| 2026-04-27 15:25 | -16.88007 | -41.94172 | 38102 ft | 438 kts | 219° |
| 2026-04-27 15:25 | -16.92911 | -41.97993 | 38107 ft | 439 kts | 219° |
| 2026-04-27 15:26 | -16.97788 | -42.01797 | 38109 ft | 440 kts | 219° |
| 2026-04-27 15:26 | -17.02702 | -42.05638 | 38111 ft | 440 kts | 219° |
| 2026-04-27 15:27 | -17.07586 | -42.09457 | 38114 ft | 439 kts | 219° |
| 2026-04-27 15:27 | -17.12507 | -42.13308 | 38115 ft | 439 kts | 219° |
| 2026-04-27 15:28 | -17.17372 | -42.17118 | 38118 ft | 438 kts | 219° |
| 2026-04-27 15:28 | -17.22268 | -42.20954 | 38121 ft | 439 kts | 219° |
| 2026-04-27 15:29 | -17.27159 | -42.24789 | 38122 ft | 439 kts | 219° |
| 2026-04-27 15:29 | -17.32017 | -42.28601 | 38126 ft | 439 kts | 219° |
| 2026-04-27 15:30 | -17.36915 | -42.32447 | 38133 ft | 439 kts | 219° |
| 2026-04-27 15:30 | -17.41794 | -42.36283 | 38142 ft | 438 kts | 219° |
| 2026-04-27 15:31 | -17.46675 | -42.40120 | 38139 ft | 438 kts | 218° |
| 2026-04-27 15:31 | -17.51524 | -42.43935 | 38139 ft | 437 kts | 218° |
| 2026-04-27 15:32 | -17.56400 | -42.47774 | 38145 ft | 437 kts | 218° |
| 2026-04-27 15:32 | -17.61262 | -42.51604 | 38147 ft | 438 kts | 218° |
| 2026-04-27 15:33 | -17.66120 | -42.55435 | 38148 ft | 438 kts | 218° |
| 2026-04-27 15:33 | -17.71003 | -42.59288 | 38150 ft | 437 kts | 218° |
| 2026-04-27 15:34 | -17.75833 | -42.63103 | 38162 ft | 437 kts | 218° |
| 2026-04-27 15:34 | -17.80694 | -42.66943 | 38165 ft | 437 kts | 218° |
| 2026-04-27 15:35 | -17.85534 | -42.70769 | 38173 ft | 436 kts | 218° |
| 2026-04-27 15:35 | -17.90399 | -42.74618 | 38191 ft | 436 kts | 219° |
| 2026-04-27 15:36 | -17.95249 | -42.78458 | 38211 ft | 437 kts | 219° |
| 2026-04-27 15:36 | -18.00094 | -42.82299 | 38217 ft | 437 kts | 218° |
| 2026-04-27 15:37 | -18.04956 | -42.86153 | 38210 ft | 437 kts | 218° |
| 2026-04-27 15:37 | -18.09795 | -42.89994 | 38191 ft | 437 kts | 218° |
| 2026-04-27 15:38 | -18.14635 | -42.93837 | 38181 ft | 436 kts | 218° |
| 2026-04-27 15:38 | -18.19504 | -42.97705 | 38167 ft | 436 kts | 219° |
| 2026-04-27 15:39 | -18.24336 | -43.01548 | 38150 ft | 436 kts | 219° |
| 2026-04-27 15:39 | -18.29152 | -43.05384 | 38144 ft | 436 kts | 219° |
| 2026-04-27 15:40 | -18.34011 | -43.09256 | 38151 ft | 436 kts | 219° |
| 2026-04-27 15:40 | -18.38828 | -43.13096 | 38156 ft | 436 kts | 219° |
| 2026-04-27 15:41 | -18.43660 | -43.16946 | 38150 ft | 435 kts | 219° |
| 2026-04-27 15:41 | -18.48496 | -43.20787 | 38149 ft | 435 kts | 219° |
| 2026-04-27 15:42 | -18.53362 | -43.24638 | 38145 ft | 435 kts | 219° |
| 2026-04-27 15:42 | -18.58181 | -43.28442 | 38143 ft | 435 kts | 219° |
| 2026-04-27 15:43 | -18.63015 | -43.32255 | 38119 ft | 426 kts | 219° |
| 2026-04-27 15:43 | -18.65368 | -43.34108 | 37635 ft | 423 kts | 219° |
| 2026-04-27 15:43 | -18.67740 | -43.35972 | 36323 ft | 430 kts | 219° |
| 2026-04-27 15:44 | -18.70145 | -43.37851 | 34541 ft | 441 kts | 219° |
| 2026-04-27 15:44 | -18.72615 | -43.39764 | 33029 ft | 443 kts | 219° |
| 2026-04-27 15:44 | -18.75065 | -43.41648 | 31944 ft | 439 kts | 219° |
| 2026-04-27 15:44 | -18.77536 | -43.43543 | 30655 ft | 439 kts | 219° |
| 2026-04-27 15:45 | -18.79995 | -43.45429 | 29301 ft | 440 kts | 219° |
| 2026-04-27 15:45 | -18.82434 | -43.47298 | 28275 ft | 433 kts | 218° |
| 2026-04-27 15:45 | -18.84844 | -43.49155 | 27291 ft | 425 kts | 218° |
| 2026-04-27 15:45 | -18.87189 | -43.50979 | 26314 ft | 418 kts | 218° |
| 2026-04-27 15:46 | -18.89485 | -43.52790 | 25347 ft | 412 kts | 218° |
| 2026-04-27 15:46 | -18.91762 | -43.54615 | 24382 ft | 405 kts | 218° |
| 2026-04-27 15:46 | -18.93969 | -43.56408 | 23443 ft | 399 kts | 218° |
| 2026-04-27 15:46 | -18.96128 | -43.58189 | 22532 ft | 392 kts | 218° |
| 2026-04-27 15:47 | -18.98241 | -43.59954 | 21653 ft | 386 kts | 219° |
| 2026-04-27 15:47 | -19.00304 | -43.61677 | 20773 ft | 380 kts | 219° |
| 2026-04-27 15:47 | -19.02377 | -43.63400 | 19872 ft | 376 kts | 219° |
| 2026-04-27 15:47 | -19.04400 | -43.65069 | 18982 ft | 371 kts | 219° |
| 2026-04-27 15:48 | -19.06443 | -43.66742 | 18079 ft | 367 kts | 219° |
| 2026-04-27 15:48 | -19.08441 | -43.68371 | 17205 ft | 363 kts | 219° |
| 2026-04-27 15:48 | -19.10429 | -43.69988 | 16343 ft | 359 kts | 219° |
| 2026-04-27 15:49 | -19.14295 | -43.73174 | 14611 ft | 351 kts | 219° |
| 2026-04-27 15:49 | -19.16188 | -43.74757 | 13812 ft | 345 kts | 219° |
| 2026-04-27 15:49 | -19.18026 | -43.76305 | 13354 ft | 328 kts | 219° |
| 2026-04-27 15:49 | -19.19749 | -43.77765 | 13014 ft | 310 kts | 219° |
| 2026-04-27 15:50 | -19.21392 | -43.79164 | 12676 ft | 295 kts | 219° |
| 2026-04-27 15:50 | -19.22979 | -43.80516 | 12162 ft | 289 kts | 219° |
| 2026-04-27 15:50 | -19.24517 | -43.81830 | 11591 ft | 285 kts | 219° |
| 2026-04-27 15:50 | -19.26056 | -43.83147 | 11018 ft | 282 kts | 219° |
| 2026-04-27 15:51 | -19.27554 | -43.84432 | 10467 ft | 278 kts | 219° |
| 2026-04-27 15:51 | -19.29061 | -43.85725 | 9901 ft | 275 kts | 219° |
| 2026-04-27 15:51 | -19.30528 | -43.86986 | 9391 ft | 269 kts | 219° |
| 2026-04-27 15:51 | -19.31971 | -43.88228 | 9143 ft | 268 kts | 219° |
| 2026-04-27 15:52 | -19.33432 | -43.89484 | 9133 ft | 269 kts | 219° |
| 2026-04-27 15:52 | -19.34868 | -43.90717 | 9130 ft | 269 kts | 219° |
| 2026-04-27 15:52 | -19.36324 | -43.92028 | 9132 ft | 278 kts | 226° |
| 2026-04-27 15:52 | -19.37583 | -43.93641 | 9153 ft | 289 kts | 233° |
| 2026-04-27 15:53 | -19.38775 | -43.95358 | 9009 ft | 285 kts | 234° |
| 2026-04-27 15:53 | -19.39935 | -43.97011 | 8589 ft | 276 kts | 233° |
| 2026-04-27 15:53 | -19.41069 | -43.98586 | 8149 ft | 267 kts | 232° |
| 2026-04-27 15:53 | -19.42196 | -44.00121 | 7630 ft | 262 kts | 232° |
| 2026-04-27 15:54 | -19.43331 | -44.01629 | 7082 ft | 258 kts | 230° |
| 2026-04-27 15:54 | -19.44488 | -44.03045 | 6748 ft | 253 kts | 230° |
| 2026-04-27 15:54 | -19.45626 | -44.04431 | 6465 ft | 249 kts | 230° |
| 2026-04-27 15:54 | -19.46756 | -44.05802 | 6211 ft | 245 kts | 230° |
| 2026-04-27 15:55 | -19.47876 | -44.07157 | 5931 ft | 239 kts | 230° |
| 2026-04-27 15:55 | -19.48649 | -44.07982 | 5684 ft | 235 kts | 215° |
| 2026-04-27 15:55 | -19.50698 | -44.08565 | 5368 ft | 231 kts | 171° |
| 2026-04-27 15:55 | -19.52113 | -44.07939 | 5141 ft | 217 kts | 136° |
| 2026-04-27 15:56 | -19.53127 | -44.06762 | 4949 ft | 216 kts | 129° |
| 2026-04-27 15:56 | -19.54112 | -44.05571 | 4718 ft | 215 kts | 133° |
| 2026-04-27 15:56 | -19.55171 | -44.04465 | 4544 ft | 205 kts | 136° |
| 2026-04-27 15:56 | -19.56196 | -44.03497 | 4291 ft | 192 kts | 138° |
| 2026-04-27 15:57 | -19.57174 | -44.02604 | 4042 ft | 178 kts | 139° |
| 2026-04-27 15:57 | -19.58080 | -44.01773 | 3793 ft | 167 kts | 139° |
| 2026-04-27 15:57 | -19.58930 | -44.00986 | 3571 ft | 156 kts | 139° |
| 2026-04-27 15:57 | -19.59745 | -44.00230 | 3395 ft | 155 kts | 138° |
| 2026-04-27 15:58 | -19.60562 | -43.99474 | 3214 ft | 155 kts | 139° |
| 2026-04-27 15:58 | -19.61374 | -43.98723 | 3025 ft | 155 kts | 139° |
| 2026-04-27 15:58 | -19.62184 | -43.97974 | 2826 ft | 153 kts | 139° |
| 2026-04-27 15:58 | -19.62973 | -43.97244 | 2747 ft | 141 kts | 138° |
| 2026-04-27 15:59 | -19.63583 | -43.96682 | 2748 ft | 89 kts | 138° |
| 2026-04-27 15:59 | -19.63926 | -43.96362 | 2748 ft | 59 kts | 139° |
| 2026-04-27 15:59 | -19.64226 | -43.96086 | 2748 ft | 54 kts | 138° |
| 2026-04-27 15:59 | -19.64347 | -43.95909 | 2748 ft | 20 kts | 66° |
| 2026-04-27 16:00 | -19.64255 | -43.95832 | 2748 ft | 15 kts | 1° |
| 2026-04-27 16:00 | -19.64200 | -43.95873 | 2748 ft | 15 kts | 313° |
| 2026-04-27 16:00 | -19.64096 | -43.95975 | 2748 ft | 15 kts | 319° |
| 2026-04-27 16:00 | -19.64026 | -43.96039 | 2748 ft | 0 kts | 319° |
| 2026-04-27 16:01 | -19.64025 | -43.96040 | 2748 ft | 0 kts | 319° |
| 2026-04-27 16:01 | -19.64022 | -43.96042 | 2748 ft | 1 kts | 319° |
| 2026-04-27 16:01 | -19.64011 | -43.96053 | 2748 ft | 3 kts | 320° |
| 2026-04-27 16:01 | -19.63986 | -43.96076 | 2748 ft | 6 kts | 318° |
| 2026-04-27 16:02 | -19.63943 | -43.96117 | 2748 ft | 10 kts | 318° |
| 2026-04-27 16:02 | -19.63880 | -43.96175 | 2748 ft | 13 kts | 319° |
| 2026-04-27 16:02 | -19.63802 | -43.96247 | 2748 ft | 16 kts | 319° |
| 2026-04-27 16:02 | -19.63711 | -43.96331 | 2748 ft | 18 kts | 319° |
| 2026-04-27 16:03 | -19.63590 | -43.96349 | 2748 ft | 19 kts | 29° |
| 2026-04-27 16:03 | -19.63472 | -43.96295 | 2748 ft | 17 kts | 1° |
| 2026-04-27 16:03 | -19.63399 | -43.96374 | 2748 ft | 14 kts | 301° |
| 2026-04-27 16:03 | -19.63335 | -43.96458 | 2748 ft | 14 kts | 316° |
| 2026-04-27 16:04 | -19.63263 | -43.96523 | 2747 ft | 13 kts | 321° |
| 2026-04-27 16:04 | -19.63207 | -43.96569 | 2747 ft | 6 kts | 324° |
| 2026-04-27 16:04 | -19.63170 | -43.96556 | 2747 ft | 6 kts | 50° |
| 2026-04-27 16:04 | -19.63146 | -43.96529 | 2747 ft | 3 kts | 46° |
| 2026-04-27 16:05 | -19.63136 | -43.96518 | 2747 ft | 0 kts | 46° |